createdAt,value
2022-10-22T00:02:08.900Z,21.78
2022-10-22T00:04:36.095Z,21.85
2022-10-22T00:07:04.759Z,21.99
2022-10-22T00:09:31.899Z,22.01
2022-10-22T00:11:59.059Z,22.10
2022-10-22T00:14:26.119Z,22.15
2022-10-22T00:16:53.269Z,22.15
2022-10-22T00:19:20.331Z,22.07
2022-10-22T00:21:47.398Z,22.10
2022-10-22T00:24:16.101Z,21.99
2022-10-22T00:26:43.141Z,21.96
2022-10-22T00:29:10.318Z,21.89
2022-10-22T00:31:37.478Z,21.95
2022-10-22T00:34:04.620Z,21.93
2022-10-22T00:36:31.699Z,21.88
2022-10-22T00:38:58.799Z,21.88
2022-10-22T00:41:27.399Z,21.91
2022-10-22T00:43:57.438Z,21.93
2022-10-22T00:46:24.632Z,22.02
2022-10-22T00:48:53.032Z,21.98
2022-10-22T00:51:24.643Z,21.99
2022-10-22T00:53:57.233Z,22.05
2022-10-22T00:56:25.096Z,22.03
2022-10-22T00:58:59.727Z,22.01
2022-10-22T01:01:31.356Z,22.06
2022-10-22T01:03:59.434Z,22.05
2022-10-22T01:06:29.572Z,22.07
2022-10-22T01:09:10.033Z,22.08
2022-10-22T01:11:52.574Z,21.99
2022-10-22T01:14:33.499Z,21.92
2022-10-22T01:17:08.049Z,21.95
2022-10-22T01:19:57.956Z,21.89
2022-10-22T01:22:32.604Z,21.82
2022-10-22T01:25:08.025Z,21.86
2022-10-22T01:28:01.689Z,21.85
2022-10-22T01:30:30.406Z,21.86
2022-10-22T01:33:03.378Z,21.94
2022-10-22T01:35:35.970Z,21.94
2022-10-22T01:38:09.092Z,21.94
2022-10-22T01:40:37.547Z,21.99
2022-10-22T01:43:07.195Z,21.92
2022-10-22T01:45:40.566Z,21.86
2022-10-22T01:48:26.206Z,21.79
2022-10-22T01:51:19.305Z,22.08
2022-10-22T01:54:00.147Z,22.26
2022-10-22T01:56:56.987Z,22.54
2022-10-22T01:59:40.027Z,22.51
2022-10-22T02:02:23.725Z,22.50
2022-10-22T02:04:58.869Z,22.52
2022-10-22T02:07:31.807Z,22.52
2022-10-22T02:10:01.226Z,22.46
2022-10-22T02:12:32.409Z,22.44
2022-10-22T02:15:03.050Z,22.41
2022-10-22T02:17:37.486Z,22.44
2022-10-22T02:20:12.685Z,22.38
2022-10-22T02:22:40.215Z,22.36
2022-10-22T02:25:09.509Z,22.34
2022-10-22T02:27:44.007Z,22.33
2022-10-22T02:32:50.367Z,22.40
2022-10-22T02:35:22.290Z,22.45
2022-10-22T02:37:52.267Z,22.51
2022-10-22T02:40:21.227Z,22.51
2022-10-22T02:42:50.565Z,22.48
2022-10-22T02:45:19.948Z,22.49
2022-10-22T02:47:49.089Z,22.52
2022-10-22T02:50:17.077Z,22.57
2022-10-22T02:52:44.249Z,22.48
2022-10-22T02:55:11.366Z,22.44
2022-10-22T02:57:38.624Z,22.41
2022-10-22T03:00:07.899Z,22.37
2022-10-22T03:02:34.926Z,22.30
2022-10-22T03:05:04.153Z,22.29
2022-10-22T03:07:31.368Z,22.36
2022-10-22T03:09:58.507Z,22.33
2022-10-22T03:12:25.708Z,22.38
2022-10-22T03:14:52.747Z,22.32
2022-10-22T03:17:19.825Z,22.33
2022-10-22T03:19:46.909Z,22.30
2022-10-22T03:22:20.426Z,22.32
2022-10-22T03:24:53.329Z,22.34
2022-10-22T03:27:22.827Z,22.34
2022-10-22T03:29:52.707Z,22.31
2022-10-22T03:32:19.908Z,22.35
2022-10-22T03:34:47.152Z,22.41
2022-10-22T03:37:16.688Z,22.36
2022-10-22T03:39:44.330Z,22.36
2022-10-22T03:42:11.690Z,22.35
2022-10-22T03:44:40.567Z,22.35
2022-10-22T03:47:08.591Z,22.26
2022-10-22T03:49:36.266Z,22.35
2022-10-22T03:52:07.747Z,22.34
2022-10-22T03:57:10.667Z,22.42
2022-10-22T03:59:39.646Z,22.43
2022-10-22T04:02:06.727Z,22.46
2022-10-22T04:04:34.329Z,22.45
2022-10-22T04:07:01.365Z,22.46
2022-10-22T04:09:31.368Z,22.54
2022-10-22T04:12:00.266Z,22.51
2022-10-22T04:14:27.307Z,22.46
2022-10-22T04:16:54.747Z,22.49
2022-10-22T04:19:21.888Z,22.46
2022-10-22T04:21:48.911Z,22.41
2022-10-22T04:24:16.427Z,22.36
2022-10-22T04:26:44.048Z,22.36
2022-10-22T04:29:15.997Z,22.36
2022-10-22T04:31:43.768Z,22.33
2022-10-22T04:34:10.910Z,22.38
2022-10-22T04:36:37.940Z,22.39
2022-10-22T04:39:05.468Z,22.35
2022-10-22T04:41:34.349Z,22.37
2022-10-22T04:44:01.825Z,22.42
2022-10-22T04:46:32.985Z,22.42
2022-10-22T04:49:00.273Z,22.40
2022-10-22T04:51:27.806Z,22.34
2022-10-22T04:53:55.349Z,22.36
2022-10-22T04:56:25.688Z,22.38
2022-10-22T04:58:55.166Z,22.39
2022-10-22T05:01:24.490Z,22.33
2022-10-22T05:03:55.246Z,22.43
2022-10-22T05:06:23.749Z,22.46
2022-10-22T05:08:55.340Z,22.41
2022-10-22T05:11:25.227Z,22.41
2022-10-22T05:13:52.448Z,22.40
2022-10-22T05:16:19.546Z,22.33
2022-10-22T05:18:46.587Z,22.36
2022-10-22T05:21:17.545Z,22.39
2022-10-22T05:23:46.286Z,22.40
2022-10-22T05:26:16.190Z,22.35
2022-10-22T05:31:12.928Z,22.25
2022-10-22T05:33:40.748Z,22.17
2022-10-22T05:36:10.910Z,22.15
2022-10-22T05:38:39.328Z,22.10
2022-10-22T05:41:09.786Z,22.06
2022-10-22T05:43:37.568Z,22.01
2022-10-22T05:46:06.746Z,21.97
2022-10-22T05:48:34.392Z,21.94
2022-10-22T05:51:02.847Z,21.94
2022-10-22T05:53:30.188Z,21.96
2022-10-22T05:56:00.426Z,21.90
2022-10-22T05:58:27.488Z,21.86
2022-10-22T06:00:54.608Z,21.87
2022-10-22T06:03:21.727Z,21.84
2022-10-22T06:05:48.869Z,21.80
2022-10-22T06:08:18.930Z,21.83
2022-10-22T06:10:46.466Z,21.81
2022-10-22T06:13:15.049Z,21.76
2022-10-22T06:15:42.128Z,21.79
2022-10-22T06:18:09.205Z,21.72
2022-10-22T06:20:36.309Z,21.70
2022-10-22T06:23:03.387Z,21.66
2022-10-22T06:25:30.516Z,21.63
2022-10-22T06:27:57.645Z,21.65
2022-10-22T06:30:26.188Z,21.63
2022-10-22T06:32:53.167Z,21.69
2022-10-22T06:35:20.186Z,21.70
2022-10-22T06:37:47.208Z,21.71
2022-10-22T06:40:14.535Z,21.73
2022-10-22T06:42:41.778Z,21.78
2022-10-22T06:45:10.727Z,21.75
2022-10-22T06:47:39.630Z,21.80
2022-10-22T06:50:08.369Z,21.78
2022-10-22T06:52:35.385Z,21.82
2022-10-22T06:55:02.456Z,21.83
2022-10-22T06:57:30.802Z,21.81
2022-10-22T06:59:57.867Z,21.83
2022-10-22T07:02:24.967Z,21.87
2022-10-22T07:04:53.447Z,21.91
2022-10-22T07:07:20.506Z,21.96
2022-10-22T07:09:47.526Z,22.06
2022-10-22T07:12:15.230Z,22.16
2022-10-22T07:14:42.375Z,22.26
2022-10-22T07:17:09.865Z,22.51
2022-10-22T07:19:37.287Z,23.02
2022-10-22T07:22:05.827Z,23.38
2022-10-22T07:24:33.007Z,23.61
2022-10-22T07:27:00.110Z,23.64
2022-10-22T07:29:27.326Z,23.73
2022-10-22T07:31:54.607Z,23.75
2022-10-22T07:34:21.722Z,24.02
2022-10-22T07:36:48.826Z,23.92
2022-10-22T07:39:17.346Z,23.74
2022-10-22T07:41:44.415Z,23.60
2022-10-22T07:44:11.769Z,23.49
2022-10-22T07:46:38.827Z,23.50
2022-10-22T07:49:05.890Z,23.91
2022-10-22T07:51:32.908Z,24.02
2022-10-22T07:53:59.948Z,24.45
2022-10-22T07:56:28.507Z,24.79
2022-10-22T07:58:55.555Z,25.01
2022-10-22T08:01:22.712Z,25.19
2022-10-22T08:03:49.812Z,25.41
2022-10-22T08:06:17.468Z,25.44
2022-10-22T08:08:45.533Z,25.24
2022-10-22T08:11:13.088Z,24.94
2022-10-22T08:13:45.629Z,25.20
2022-10-22T08:16:13.907Z,25.50
2022-10-22T08:18:41.007Z,25.48
2022-10-22T08:21:08.047Z,25.42
2022-10-22T08:23:35.167Z,25.68
2022-10-22T08:26:02.208Z,25.65
2022-10-22T08:28:29.387Z,25.67
2022-10-22T08:30:58.047Z,25.98
2022-10-22T08:33:25.116Z,26.20
2022-10-22T08:35:52.708Z,26.27
2022-10-22T08:38:20.506Z,26.47
2022-10-22T08:40:51.973Z,26.62
2022-10-22T08:43:46.489Z,26.73
2022-10-22T08:46:30.847Z,26.94
2022-10-22T08:49:02.050Z,27.08
2022-10-22T08:51:34.434Z,26.50
2022-10-22T08:54:22.727Z,26.56
2022-10-22T08:57:02.651Z,26.70
2022-10-22T08:59:39.650Z,26.56
2022-10-22T09:02:30.449Z,26.85
2022-10-22T09:05:13.567Z,26.97
2022-10-22T09:07:43.614Z,26.99
2022-10-22T09:10:13.489Z,27.17
2022-10-22T09:12:41.067Z,27.32
2022-10-22T09:15:14.188Z,27.46
2022-10-22T09:17:58.329Z,27.42
2022-10-22T09:20:32.408Z,27.45
2022-10-22T09:23:17.431Z,27.62
2022-10-22T09:25:45.769Z,27.80
2022-10-22T09:28:13.213Z,27.71
2022-10-22T09:30:40.408Z,27.43
2022-10-22T09:33:15.428Z,27.59
2022-10-22T09:35:47.988Z,27.49
2022-10-22T09:38:18.990Z,27.77
2022-10-22T09:40:49.309Z,27.83
2022-10-22T09:43:17.489Z,27.86
2022-10-22T09:45:45.807Z,27.99
2022-10-22T09:48:21.887Z,28.10
2022-10-22T09:50:55.110Z,28.16
2022-10-22T09:53:26.950Z,28.20
2022-10-22T09:55:57.195Z,28.14
2022-10-22T09:58:25.011Z,28.28
2022-10-22T10:00:56.188Z,28.34
2022-10-22T10:03:27.803Z,28.36
2022-10-22T10:06:01.483Z,28.27
2022-10-22T10:08:32.144Z,28.24
2022-10-22T10:11:07.749Z,28.15
2022-10-22T10:13:50.708Z,28.30
2022-10-22T10:16:35.809Z,28.22
2022-10-22T10:19:28.429Z,28.16
2022-10-22T10:22:10.449Z,28.18
2022-10-22T10:24:56.109Z,28.06
2022-10-22T10:27:34.168Z,27.88
2022-10-22T10:30:06.153Z,27.81
2022-10-22T10:32:56.308Z,27.82
2022-10-22T10:35:29.488Z,27.97
2022-10-22T10:38:14.349Z,28.01
2022-10-22T10:40:48.853Z,28.13
2022-10-22T10:43:24.531Z,28.14
2022-10-22T10:46:09.543Z,27.80
2022-10-22T10:48:49.369Z,27.88
2022-10-22T10:51:35.768Z,27.94
2022-10-22T10:54:27.516Z,27.96
2022-10-22T10:57:00.608Z,27.96
2022-10-22T10:59:42.349Z,27.92
2022-10-22T11:02:45.322Z,27.85
2022-10-22T11:05:30.790Z,27.83
2022-10-22T11:08:04.669Z,27.81
2022-10-22T11:10:39.288Z,27.81
2022-10-22T11:13:18.188Z,27.84
2022-10-22T11:15:52.788Z,27.69
2022-10-22T11:18:25.152Z,27.66
2022-10-22T11:21:19.010Z,27.51
2022-10-22T11:23:55.708Z,27.47
2022-10-22T11:26:36.268Z,27.49
2022-10-22T11:29:11.651Z,27.78
2022-10-22T11:31:41.108Z,27.98
2022-10-22T11:34:34.351Z,28.16
2022-10-22T11:37:04.527Z,28.24
2022-10-22T11:39:41.472Z,28.24
2022-10-22T11:42:12.109Z,28.44
2022-10-22T11:44:59.072Z,28.37
2022-10-22T11:47:28.468Z,28.15
2022-10-22T11:50:02.270Z,28.19
2022-10-22T11:52:41.495Z,28.22
2022-10-22T11:55:42.348Z,27.92
2022-10-22T11:58:31.407Z,27.76
2022-10-22T12:01:17.966Z,27.91
2022-10-22T12:03:49.726Z,27.71
2022-10-22T12:06:23.827Z,27.84
2022-10-22T12:08:59.609Z,27.87
2022-10-22T12:11:36.152Z,27.87
2022-10-22T12:14:17.427Z,27.79
2022-10-22T12:17:02.493Z,27.85
2022-10-22T12:19:32.752Z,27.98
2022-10-22T12:22:11.651Z,27.99
2022-10-22T12:24:41.787Z,27.93
2022-10-22T12:27:22.456Z,27.86
2022-10-22T12:29:55.647Z,27.91
2022-10-22T12:32:23.867Z,27.89
2022-10-22T12:34:52.991Z,27.79
2022-10-22T12:37:20.285Z,27.65
2022-10-22T12:39:47.706Z,27.58
2022-10-22T12:42:18.181Z,27.66
2022-10-22T12:44:45.387Z,27.73
2022-10-22T12:47:17.488Z,27.79
2022-10-22T12:49:48.149Z,27.75
2022-10-22T12:52:20.607Z,27.76
2022-10-22T12:54:50.176Z,27.61
2022-10-22T12:57:21.600Z,27.59
2022-10-22T12:59:52.097Z,27.63
2022-10-22T13:02:22.908Z,27.60
2022-10-22T13:05:24.256Z,27.52
2022-10-22T13:07:53.567Z,27.38
2022-10-22T13:10:25.548Z,27.44
2022-10-22T13:12:56.148Z,27.49
2022-10-22T13:15:35.887Z,27.36
2022-10-22T13:18:16.450Z,27.32
2022-10-22T13:20:55.610Z,27.22
2022-10-22T13:23:24.706Z,26.89
2022-10-22T13:26:00.318Z,27.00
2022-10-22T13:28:32.246Z,26.97
2022-10-22T13:31:01.547Z,26.94
2022-10-22T13:33:34.250Z,26.91
2022-10-22T13:36:02.467Z,26.87
2022-10-22T13:38:30.087Z,26.80
2022-10-22T13:40:57.807Z,26.90
2022-10-22T13:43:24.992Z,26.81
2022-10-22T13:45:58.227Z,26.89
2022-10-22T13:48:28.146Z,26.81
2022-10-22T13:50:55.306Z,26.80
2022-10-22T13:53:26.188Z,26.80
2022-10-22T13:55:54.039Z,26.81
2022-10-22T13:58:23.329Z,26.72
2022-10-22T14:00:55.425Z,26.72
2022-10-22T14:03:28.248Z,26.82
2022-10-22T14:05:56.187Z,26.84
2022-10-22T14:08:27.026Z,26.79
2022-10-22T14:10:54.766Z,26.76
2022-10-22T14:13:21.984Z,26.73
2022-10-22T14:15:52.193Z,26.84
2022-10-22T14:18:24.338Z,26.89
2022-10-22T14:20:55.046Z,26.84
2022-10-22T14:23:25.306Z,26.82
2022-10-22T14:25:52.686Z,26.86
2022-10-22T14:28:20.387Z,26.89
2022-10-22T14:30:47.628Z,26.88
2022-10-22T14:33:18.670Z,26.67
2022-10-22T14:35:47.912Z,26.65
2022-10-22T14:38:15.026Z,26.61
2022-10-22T14:40:44.135Z,26.63
2022-10-22T14:43:13.029Z,26.61
2022-10-22T14:45:40.088Z,26.59
2022-10-22T14:48:07.259Z,26.63
2022-10-22T14:50:34.666Z,26.63
2022-10-22T14:53:03.300Z,26.35
2022-10-22T14:55:30.386Z,26.22
2022-10-22T14:57:57.806Z,26.10
2022-10-22T15:00:24.952Z,26.06
2022-10-22T15:02:52.347Z,25.97
2022-10-22T15:05:19.510Z,25.95
2022-10-22T15:07:46.637Z,26.06
2022-10-22T15:10:15.147Z,25.98
2022-10-22T15:12:42.167Z,26.06
2022-10-22T15:15:10.152Z,26.07
2022-10-22T15:17:37.513Z,26.06
2022-10-22T15:20:05.891Z,26.01
2022-10-22T15:22:33.630Z,25.96
2022-10-22T15:25:01.014Z,25.91
2022-10-22T15:27:29.568Z,25.85
2022-10-22T15:29:56.726Z,25.80
2022-10-22T15:32:23.806Z,25.80
2022-10-22T15:34:53.597Z,25.80
2022-10-22T15:37:21.848Z,25.79
2022-10-22T15:39:49.128Z,25.75
2022-10-22T15:42:16.688Z,25.72
2022-10-22T15:44:45.649Z,25.71
2022-10-22T15:47:12.766Z,25.70
2022-10-22T15:49:40.671Z,25.64
2022-10-22T15:52:08.993Z,25.58
2022-10-22T15:54:36.593Z,25.51
2022-10-22T15:57:03.960Z,25.52
2022-10-22T15:59:31.252Z,25.47
2022-10-22T16:01:59.788Z,25.47
2022-10-22T16:04:26.872Z,25.42
2022-10-22T16:06:54.269Z,25.34
2022-10-22T16:09:23.930Z,25.24
2022-10-22T16:14:22.590Z,25.04
2022-10-22T16:16:52.420Z,24.94
2022-10-22T16:19:23.109Z,24.80
2022-10-22T16:21:51.514Z,24.70
2022-10-22T16:24:19.862Z,24.64
2022-10-22T16:26:47.830Z,24.57
2022-10-22T16:29:15.195Z,24.47
2022-10-22T16:31:42.367Z,24.42
2022-10-22T16:34:09.807Z,24.35
2022-10-22T16:36:39.214Z,24.27
2022-10-22T16:39:06.826Z,24.25
2022-10-22T16:41:34.470Z,24.18
2022-10-22T16:44:03.787Z,24.06
2022-10-22T16:46:31.765Z,23.98
2022-10-22T16:48:58.901Z,23.91
2022-10-22T16:51:28.381Z,23.81
2022-10-22T16:53:58.509Z,23.76
2022-10-22T16:56:26.288Z,23.67
2022-10-22T16:58:56.262Z,23.62
2022-10-22T17:01:25.890Z,23.55
2022-10-22T17:03:54.302Z,23.50
2022-10-22T17:06:23.705Z,23.47
2022-10-22T17:08:51.295Z,23.44
2022-10-22T17:11:22.242Z,23.41
2022-10-22T17:13:51.803Z,23.40
2022-10-22T17:16:20.883Z,23.34
2022-10-22T17:18:48.707Z,23.28
2022-10-22T17:21:17.224Z,23.23
2022-10-22T17:23:45.302Z,23.21
2022-10-22T17:26:16.046Z,23.21
2022-10-22T17:28:44.760Z,23.20
2022-10-22T17:31:17.804Z,23.20
2022-10-22T17:33:45.482Z,23.15
2022-10-22T17:36:13.820Z,23.11
2022-10-22T17:38:43.063Z,23.05
2022-10-22T17:41:15.241Z,23.00
2022-10-22T17:43:42.394Z,22.96
2022-10-22T17:46:16.242Z,22.93
2022-10-22T17:48:43.345Z,22.86
2022-10-22T17:51:12.681Z,22.81
2022-10-22T17:53:40.963Z,22.73
2022-10-22T17:56:09.681Z,22.71
2022-10-22T17:58:37.549Z,22.70
2022-10-22T18:01:06.301Z,22.74
2022-10-22T18:03:35.323Z,22.71
2022-10-22T18:06:07.836Z,22.68
2022-10-22T18:08:35.052Z,22.70
2022-10-22T18:11:06.762Z,22.76
2022-10-22T18:13:33.983Z,22.68
2022-10-22T18:16:01.083Z,22.59
2022-10-22T18:18:29.041Z,22.47
2022-10-22T18:20:57.943Z,22.45
2022-10-22T18:23:25.104Z,22.47
2022-10-22T18:25:52.485Z,22.44
2022-10-22T18:28:20.203Z,22.38
2022-10-22T18:30:49.285Z,22.39
2022-10-22T18:33:18.624Z,22.42
2022-10-22T18:35:46.863Z,22.40
2022-10-22T18:38:15.662Z,22.38
2022-10-22T18:40:45.981Z,22.39
2022-10-22T18:43:13.284Z,22.43
2022-10-22T18:45:42.884Z,22.37
2022-10-22T18:48:10.324Z,22.38
2022-10-22T18:50:37.383Z,22.37
2022-10-22T18:53:04.601Z,22.37
2022-10-22T18:55:34.381Z,22.40
2022-10-22T18:58:01.725Z,22.37
2022-10-22T19:00:28.822Z,22.31
2022-10-22T19:02:55.924Z,22.23
2022-10-22T19:05:23.083Z,22.23
2022-10-22T19:07:53.541Z,22.28
2022-10-22T19:10:21.023Z,22.26
2022-10-22T19:12:49.503Z,22.27
2022-10-22T19:15:16.807Z,22.23
2022-10-22T19:17:44.199Z,22.24
2022-10-22T19:20:11.583Z,22.19
2022-10-22T19:22:38.743Z,22.23
2022-10-22T19:25:09.702Z,22.21
2022-10-22T19:27:39.396Z,22.18
2022-10-22T19:30:09.826Z,22.19
2022-10-22T19:32:36.982Z,22.17
2022-10-22T19:35:05.022Z,22.11
2022-10-22T19:37:33.142Z,22.14
2022-10-22T19:40:00.380Z,22.12
2022-10-22T19:42:27.565Z,22.10
2022-10-22T19:44:54.701Z,22.12
2022-10-22T19:47:23.222Z,22.13
2022-10-22T19:49:50.323Z,22.18
2022-10-22T19:52:17.403Z,22.15
2022-10-22T19:54:44.522Z,22.15
2022-10-22T19:57:15.584Z,22.15
2022-10-22T19:59:42.904Z,22.10
2022-10-22T20:02:15.363Z,22.08
2022-10-22T20:04:49.144Z,22.09
2022-10-22T20:07:17.374Z,22.02
2022-10-22T20:09:44.584Z,21.99
2022-10-22T20:12:11.702Z,21.97
2022-10-22T20:14:40.204Z,21.99
2022-10-22T20:17:07.341Z,22.01
2022-10-22T20:19:34.461Z,21.96
2022-10-22T20:22:03.029Z,22.00
2022-10-22T20:24:30.543Z,22.01
2022-10-22T20:26:57.964Z,22.02
2022-10-22T20:29:25.065Z,22.07
2022-10-22T20:31:52.143Z,22.10
2022-10-22T20:34:19.201Z,22.15
2022-10-22T20:36:46.345Z,22.11
2022-10-22T20:39:15.821Z,22.06
2022-10-22T20:41:42.961Z,22.00
2022-10-22T20:44:15.659Z,22.06
2022-10-22T20:46:43.158Z,22.07
2022-10-22T20:49:13.047Z,22.07
2022-10-22T20:51:40.482Z,22.08
2022-10-22T20:54:08.823Z,22.07
2022-10-22T20:56:39.909Z,22.05
2022-10-22T20:59:09.304Z,22.08
2022-10-22T21:01:39.224Z,22.08
2022-10-22T21:04:07.194Z,22.08
2022-10-22T21:06:35.786Z,22.09
2022-10-22T21:09:03.167Z,22.09
2022-10-22T21:11:30.307Z,22.06
2022-10-22T21:13:59.016Z,22.05
2022-10-22T21:16:37.945Z,22.04
2022-10-22T21:19:09.607Z,21.98
2022-10-22T21:21:36.905Z,21.98
2022-10-22T21:24:04.703Z,21.94
2022-10-22T21:26:31.983Z,21.86
2022-10-22T21:29:00.643Z,21.82
2022-10-22T21:31:27.701Z,21.77
2022-10-22T21:33:55.082Z,21.79
2022-10-22T21:36:24.067Z,21.78
2022-10-22T21:38:52.844Z,21.79
2022-10-22T21:41:22.096Z,21.81
2022-10-22T21:43:49.765Z,21.89
2022-10-22T21:46:20.282Z,21.94
2022-10-22T21:48:48.226Z,21.96
2022-10-22T21:51:17.886Z,21.92
2022-10-22T21:53:45.653Z,21.96
2022-10-22T21:56:15.184Z,21.98
2022-10-22T21:58:43.225Z,21.96
2022-10-22T22:01:10.993Z,22.03
2022-10-22T22:03:41.951Z,22.02
2022-10-22T22:06:09.143Z,22.03
2022-10-22T22:08:36.439Z,22.07
2022-10-22T22:11:05.993Z,22.11
2022-10-22T22:13:34.423Z,22.12
2022-10-22T22:16:03.503Z,22.20
2022-10-22T22:18:32.222Z,22.17
2022-10-22T22:21:03.684Z,22.16
2022-10-22T22:23:30.823Z,22.14
2022-10-22T22:25:59.345Z,22.10
2022-10-22T22:28:26.745Z,22.17
2022-10-22T22:30:53.842Z,22.19
2022-10-22T22:33:20.882Z,22.24
2022-10-22T22:35:47.949Z,22.19
2022-10-22T22:38:16.568Z,22.13
2022-10-22T22:40:44.283Z,22.11
2022-10-22T22:43:12.404Z,22.14
2022-10-22T22:45:39.483Z,22.08
2022-10-22T22:48:07.421Z,21.98
2022-10-22T22:50:35.697Z,21.89
2022-10-22T22:53:02.869Z,21.82
2022-10-22T22:55:31.426Z,21.78
2022-10-22T22:57:58.824Z,21.74
2022-10-22T23:00:26.070Z,21.64
2022-10-22T23:02:54.926Z,21.62
2022-10-22T23:05:21.923Z,21.57
2022-10-22T23:07:48.985Z,21.56
2022-10-22T23:10:16.414Z,21.55
2022-10-22T23:12:45.086Z,21.58
2022-10-22T23:15:12.583Z,21.53
2022-10-22T23:17:39.683Z,21.50
2022-10-22T23:20:08.063Z,21.46
2022-10-22T23:22:35.162Z,21.43
2022-10-22T23:25:02.225Z,21.41
2022-10-22T23:27:29.440Z,21.41
2022-10-22T23:29:58.042Z,21.41
2022-10-22T23:32:25.164Z,21.39
2022-10-22T23:34:52.222Z,21.33
2022-10-22T23:37:19.342Z,21.36
2022-10-22T23:39:46.385Z,21.37
2022-10-22T23:42:13.501Z,21.41
2022-10-22T23:44:40.700Z,21.43
2022-10-22T23:47:09.205Z,21.42
2022-10-22T23:49:36.302Z,21.38
2022-10-22T23:52:03.421Z,21.28
2022-10-22T23:54:30.582Z,21.29
2022-10-22T23:56:57.642Z,21.26
2022-10-22T23:59:29.736Z,21.23
